sensor_id;sensor_type;location;lat;lon;timestamp;P1;durP1;ratioP1;P2;durP2;ratioP2
1995;SDS011;38556;47.068;15.408;2023-05-09T00:01:05;34.90;;;32.42;;
1995;SDS011;38556;47.068;15.408;2023-05-09T00:03:33;35.05;;;32.25;;
1995;SDS011;38556;47.068;15.408;2023-05-09T00:06:00;33.50;;;30.90;;
1995;SDS011;38556;47.068;15.408;2023-05-09T00:08:29;34.80;;;32.13;;
1995;SDS011;38556;47.068;15.408;2023-05-09T00:10:56;34.70;;;31.95;;
1995;SDS011;38556;47.068;15.408;2023-05-09T00:13:23;35.50;;;32.42;;
1995;SDS011;38556;47.068;15.408;2023-05-09T00:15:51;34.38;;;31.63;;
1995;SDS011;38556;47.068;15.408;2023-05-09T00:18:19;35.35;;;32.70;;
1995;SDS011;38556;47.068;15.408;2023-05-09T00:20:46;32.47;;;29.77;;
1995;SDS011;38556;47.068;15.408;2023-05-09T00:23:13;34.60;;;31.70;;
1995;SDS011;38556;47.068;15.408;2023-05-09T00:25:42;33.33;;;30.52;;
1995;SDS011;38556;47.068;15.408;2023-05-09T00:28:09;34.13;;;31.52;;
1995;SDS011;38556;47.068;15.408;2023-05-09T00:30:36;30.95;;;28.65;;
1995;SDS011;38556;47.068;15.408;2023-05-09T00:33:04;31.10;;;28.60;;
1995;SDS011;38556;47.068;15.408;2023-05-09T00:35:31;32.67;;;30.33;;
1995;SDS011;38556;47.068;15.408;2023-05-09T00:37:59;30.52;;;28.20;;
1995;SDS011;38556;47.068;15.408;2023-05-09T00:40:26;33.13;;;30.63;;
1995;SDS011;38556;47.068;15.408;2023-05-09T00:42:57;30.98;;;28.75;;
1995;SDS011;38556;47.068;15.408;2023-05-09T00:45:24;30.98;;;28.77;;
1995;SDS011;38556;47.068;15.408;2023-05-09T00:47:51;30.55;;;28.45;;
1995;SDS011;38556;47.068;15.408;2023-05-09T00:50:19;31.65;;;29.10;;
1995;SDS011;38556;47.068;15.408;2023-05-09T00:52:46;31.27;;;28.98;;
1995;SDS011;38556;47.068;15.408;2023-05-09T00:55:14;31.38;;;28.98;;
1995;SDS011;38556;47.068;15.408;2023-05-09T00:57:42;31.17;;;28.75;;
1995;SDS011;38556;47.068;15.408;2023-05-09T01:00:12;34.38;;;31.38;;
1995;SDS011;38556;47.068;15.408;2023-05-09T01:02:39;31.98;;;29.48;;
1995;SDS011;38556;47.068;15.408;2023-05-09T01:05:08;33.45;;;30.70;;
1995;SDS011;38556;47.068;15.408;2023-05-09T01:07:37;32.38;;;29.98;;
1995;SDS011;38556;47.068;15.408;2023-05-09T01:10:10;31.63;;;29.27;;
1995;SDS011;38556;47.068;15.408;2023-05-09T01:12:43;31.63;;;29.20;;
1995;SDS011;38556;47.068;15.408;2023-05-09T01:15:17;31.17;;;28.98;;
1995;SDS011;38556;47.068;15.408;2023-05-09T01:17:51;31.05;;;28.95;;
1995;SDS011;38556;47.068;15.408;2023-05-09T01:20:25;30.95;;;28.45;;
1995;SDS011;38556;47.068;15.408;2023-05-09T01:23:06;32.38;;;29.90;;
1995;SDS011;38556;47.068;15.408;2023-05-09T01:25:48;30.10;;;28.00;;
1995;SDS011;38556;47.068;15.408;2023-05-09T01:28:31;30.83;;;28.73;;
1995;SDS011;38556;47.068;15.408;2023-05-09T01:31:04;31.05;;;28.67;;
1995;SDS011;38556;47.068;15.408;2023-05-09T01:33:34;31.58;;;29.27;;
1995;SDS011;38556;47.068;15.408;2023-05-09T01:36:07;31.45;;;28.95;;
1995;SDS011;38556;47.068;15.408;2023-05-09T01:38:37;31.98;;;29.83;;
1995;SDS011;38556;47.068;15.408;2023-05-09T01:41:08;30.88;;;28.58;;
1995;SDS011;38556;47.068;15.408;2023-05-09T01:43:37;32.22;;;29.83;;
1995;SDS011;38556;47.068;15.408;2023-05-09T01:46:07;32.15;;;29.88;;
1995;SDS011;38556;47.068;15.408;2023-05-09T01:48:35;29.77;;;27.80;;
1995;SDS011;38556;47.068;15.408;2023-05-09T01:51:08;33.67;;;31.23;;
1995;SDS011;38556;47.068;15.408;2023-05-09T01:53:37;32.33;;;30.00;;
1995;SDS011;38556;47.068;15.408;2023-05-09T01:56:05;31.85;;;29.45;;
1995;SDS011;38556;47.068;15.408;2023-05-09T01:58:35;31.15;;;28.85;;
1995;SDS011;38556;47.068;15.408;2023-05-09T02:01:03;31.70;;;29.35;;
1995;SDS011;38556;47.068;15.408;2023-05-09T02:03:33;30.95;;;28.63;;
1995;SDS011;38556;47.068;15.408;2023-05-09T02:06:01;32.60;;;30.20;;
1995;SDS011;38556;47.068;15.408;2023-05-09T02:08:30;32.70;;;30.30;;
1995;SDS011;38556;47.068;15.408;2023-05-09T02:10:58;32.35;;;30.05;;
1995;SDS011;38556;47.068;15.408;2023-05-09T02:13:26;32.35;;;30.23;;
1995;SDS011;38556;47.068;15.408;2023-05-09T02:15:53;31.50;;;29.20;;
1995;SDS011;38556;47.068;15.408;2023-05-09T02:18:21;30.33;;;28.20;;
1995;SDS011;38556;47.068;15.408;2023-05-09T02:20:49;31.42;;;29.30;;
1995;SDS011;38556;47.068;15.408;2023-05-09T02:23:17;31.08;;;28.98;;
1995;SDS011;38556;47.068;15.408;2023-05-09T02:25:44;28.60;;;26.70;;
1995;SDS011;38556;47.068;15.408;2023-05-09T02:28:12;29.80;;;27.70;;
1995;SDS011;38556;47.068;15.408;2023-05-09T02:30:41;30.25;;;28.05;;
1995;SDS011;38556;47.068;15.408;2023-05-09T02:33:10;31.70;;;29.40;;
1995;SDS011;38556;47.068;15.408;2023-05-09T02:35:39;31.98;;;29.52;;
1995;SDS011;38556;47.068;15.408;2023-05-09T02:38:11;31.50;;;29.38;;
1995;SDS011;38556;47.068;15.408;2023-05-09T02:40:40;30.70;;;28.63;;
1995;SDS011;38556;47.068;15.408;2023-05-09T02:43:09;31.67;;;29.38;;
1995;SDS011;38556;47.068;15.408;2023-05-09T02:45:36;30.83;;;28.58;;
1995;SDS011;38556;47.068;15.408;2023-05-09T02:48:03;31.13;;;28.83;;
1995;SDS011;38556;47.068;15.408;2023-05-09T02:50:31;30.95;;;28.70;;
1995;SDS011;38556;47.068;15.408;2023-05-09T02:52:58;30.10;;;28.20;;
1995;SDS011;38556;47.068;15.408;2023-05-09T02:55:27;26.75;;;25.10;;
1995;SDS011;38556;47.068;15.408;2023-05-09T02:57:54;27.08;;;25.23;;
1995;SDS011;38556;47.068;15.408;2023-05-09T03:00:22;26.73;;;25.02;;
1995;SDS011;38556;47.068;15.408;2023-05-09T03:02:50;25.27;;;23.77;;
1995;SDS011;38556;47.068;15.408;2023-05-09T03:05:17;25.65;;;24.05;;
1995;SDS011;38556;47.068;15.408;2023-05-09T03:07:44;25.80;;;23.65;;
1995;SDS011;38556;47.068;15.408;2023-05-09T03:10:12;25.75;;;24.35;;
1995;SDS011;38556;47.068;15.408;2023-05-09T03:12:40;26.00;;;24.40;;
1995;SDS011;38556;47.068;15.408;2023-05-09T03:15:08;26.05;;;24.52;;
1995;SDS011;38556;47.068;15.408;2023-05-09T03:17:35;26.25;;;24.55;;
1995;SDS011;38556;47.068;15.408;2023-05-09T03:20:02;27.02;;;25.27;;
1995;SDS011;38556;47.068;15.408;2023-05-09T03:22:32;26.52;;;24.67;;
1995;SDS011;38556;47.068;15.408;2023-05-09T03:24:59;24.58;;;23.17;;
1995;SDS011;38556;47.068;15.408;2023-05-09T03:27:27;25.88;;;24.27;;
1995;SDS011;38556;47.068;15.408;2023-05-09T03:29:56;25.58;;;23.75;;
1995;SDS011;38556;47.068;15.408;2023-05-09T03:32:23;25.20;;;23.70;;
1995;SDS011;38556;47.068;15.408;2023-05-09T03:34:52;25.00;;;23.40;;
1995;SDS011;38556;47.068;15.408;2023-05-09T03:37:20;24.90;;;23.30;;
1995;SDS011;38556;47.068;15.408;2023-05-09T03:39:47;26.63;;;24.83;;
1995;SDS011;38556;47.068;15.408;2023-05-09T03:42:15;25.00;;;23.60;;
1995;SDS011;38556;47.068;15.408;2023-05-09T03:44:42;24.65;;;23.02;;
1995;SDS011;38556;47.068;15.408;2023-05-09T03:47:10;25.95;;;24.00;;
1995;SDS011;38556;47.068;15.408;2023-05-09T03:49:37;24.48;;;23.08;;
1995;SDS011;38556;47.068;15.408;2023-05-09T03:52:06;26.10;;;24.55;;
1995;SDS011;38556;47.068;15.408;2023-05-09T03:54:33;24.00;;;22.70;;
1995;SDS011;38556;47.068;15.408;2023-05-09T03:57:01;25.75;;;24.15;;
1995;SDS011;38556;47.068;15.408;2023-05-09T03:59:28;24.30;;;22.77;;
1995;SDS011;38556;47.068;15.408;2023-05-09T04:01:56;26.50;;;24.60;;
1995;SDS011;38556;47.068;15.408;2023-05-09T04:04:25;25.60;;;24.10;;
1995;SDS011;38556;47.068;15.408;2023-05-09T04:06:52;26.48;;;24.73;;
1995;SDS011;38556;47.068;15.408;2023-05-09T04:09:19;25.48;;;24.08;;
1995;SDS011;38556;47.068;15.408;2023-05-09T04:11:47;27.48;;;25.63;;
1995;SDS011;38556;47.068;15.408;2023-05-09T04:14:14;26.25;;;24.65;;
1995;SDS011;38556;47.068;15.408;2023-05-09T04:16:41;27.80;;;26.10;;
1995;SDS011;38556;47.068;15.408;2023-05-09T04:19:08;25.80;;;24.20;;
1995;SDS011;38556;47.068;15.408;2023-05-09T04:21:37;26.17;;;24.50;;
1995;SDS011;38556;47.068;15.408;2023-05-09T04:24:05;25.90;;;24.40;;
1995;SDS011;38556;47.068;15.408;2023-05-09T04:26:33;25.05;;;23.40;;
1995;SDS011;38556;47.068;15.408;2023-05-09T04:29:02;24.63;;;22.90;;
1995;SDS011;38556;47.068;15.408;2023-05-09T04:31:30;25.42;;;23.95;;
1995;SDS011;38556;47.068;15.408;2023-05-09T04:33:57;24.98;;;23.40;;
1995;SDS011;38556;47.068;15.408;2023-05-09T04:36:24;24.80;;;23.40;;
1995;SDS011;38556;47.068;15.408;2023-05-09T04:38:54;25.38;;;23.48;;
1995;SDS011;38556;47.068;15.408;2023-05-09T04:41:22;23.67;;;22.17;;
1995;SDS011;38556;47.068;15.408;2023-05-09T04:43:49;23.70;;;22.30;;
1995;SDS011;38556;47.068;15.408;2023-05-09T04:46:16;24.65;;;23.25;;
1995;SDS011;38556;47.068;15.408;2023-05-09T04:48:44;25.27;;;23.58;;
1995;SDS011;38556;47.068;15.408;2023-05-09T04:51:10;24.80;;;22.83;;
1995;SDS011;38556;47.068;15.408;2023-05-09T04:53:38;24.60;;;23.30;;
1995;SDS011;38556;47.068;15.408;2023-05-09T04:56:06;23.70;;;22.40;;
1995;SDS011;38556;47.068;15.408;2023-05-09T04:58:34;24.42;;;22.70;;
1995;SDS011;38556;47.068;15.408;2023-05-09T05:01:02;25.00;;;23.50;;
1995;SDS011;38556;47.068;15.408;2023-05-09T05:03:30;24.80;;;23.40;;
1995;SDS011;38556;47.068;15.408;2023-05-09T05:05:57;25.42;;;23.92;;
1995;SDS011;38556;47.068;15.408;2023-05-09T05:08:25;24.63;;;23.02;;
1995;SDS011;38556;47.068;15.408;2023-05-09T05:10:52;25.10;;;23.45;;
1995;SDS011;38556;47.068;15.408;2023-05-09T05:13:21;24.27;;;22.60;;
1995;SDS011;38556;47.068;15.408;2023-05-09T05:15:48;24.35;;;22.80;;
1995;SDS011;38556;47.068;15.408;2023-05-09T05:18:16;25.02;;;23.45;;
1995;SDS011;38556;47.068;15.408;2023-05-09T05:20:43;23.67;;;22.38;;
1995;SDS011;38556;47.068;15.408;2023-05-09T05:23:11;23.58;;;22.17;;
1995;SDS011;38556;47.068;15.408;2023-05-09T05:25:38;24.98;;;23.23;;
1995;SDS011;38556;47.068;15.408;2023-05-09T05:28:06;23.92;;;22.52;;
1995;SDS011;38556;47.068;15.408;2023-05-09T05:30:34;23.73;;;22.25;;
1995;SDS011;38556;47.068;15.408;2023-05-09T05:33:02;23.88;;;22.48;;
1995;SDS011;38556;47.068;15.408;2023-05-09T05:35:29;24.15;;;22.83;;
1995;SDS011;38556;47.068;15.408;2023-05-09T05:37:56;22.58;;;21.38;;
1995;SDS011;38556;47.068;15.408;2023-05-09T05:40:24;22.30;;;20.98;;
1995;SDS011;38556;47.068;15.408;2023-05-09T05:42:51;24.45;;;23.15;;
1995;SDS011;38556;47.068;15.408;2023-05-09T05:45:19;24.17;;;22.77;;
1995;SDS011;38556;47.068;15.408;2023-05-09T05:47:47;26.13;;;24.02;;
1995;SDS011;38556;47.068;15.408;2023-05-09T05:50:15;23.15;;;21.85;;
1995;SDS011;38556;47.068;15.408;2023-05-09T05:52:42;24.38;;;22.67;;
1995;SDS011;38556;47.068;15.408;2023-05-09T05:55:09;23.67;;;22.35;;
1995;SDS011;38556;47.068;15.408;2023-05-09T05:57:36;24.00;;;22.38;;
1995;SDS011;38556;47.068;15.408;2023-05-09T06:00:03;23.90;;;22.40;;
1995;SDS011;38556;47.068;15.408;2023-05-09T06:02:34;22.42;;;21.00;;
1995;SDS011;38556;47.068;15.408;2023-05-09T06:05:02;23.90;;;21.83;;
1995;SDS011;38556;47.068;15.408;2023-05-09T06:07:31;24.10;;;22.25;;
1995;SDS011;38556;47.068;15.408;2023-05-09T06:09:58;23.90;;;22.23;;
1995;SDS011;38556;47.068;15.408;2023-05-09T06:12:26;23.10;;;21.65;;
1995;SDS011;38556;47.068;15.408;2023-05-09T06:14:53;22.88;;;21.58;;
1995;SDS011;38556;47.068;15.408;2023-05-09T06:17:20;23.23;;;21.40;;
1995;SDS011;38556;47.068;15.408;2023-05-09T06:19:47;23.92;;;22.40;;
1995;SDS011;38556;47.068;15.408;2023-05-09T06:22:16;23.92;;;22.52;;
1995;SDS011;38556;47.068;15.408;2023-05-09T06:24:43;23.40;;;21.70;;
1995;SDS011;38556;47.068;15.408;2023-05-09T06:27:11;22.38;;;21.17;;
1995;SDS011;38556;47.068;15.408;2023-05-09T06:29:38;23.35;;;22.05;;
1995;SDS011;38556;47.068;15.408;2023-05-09T06:32:05;23.98;;;22.25;;
1995;SDS011;38556;47.068;15.408;2023-05-09T06:34:32;23.10;;;21.80;;
1995;SDS011;38556;47.068;15.408;2023-05-09T06:37:00;22.92;;;21.67;;
1995;SDS011;38556;47.068;15.408;2023-05-09T06:39:28;22.33;;;21.08;;
1995;SDS011;38556;47.068;15.408;2023-05-09T06:41:56;22.65;;;21.45;;
1995;SDS011;38556;47.068;15.408;2023-05-09T06:44:23;23.42;;;22.02;;
1995;SDS011;38556;47.068;15.408;2023-05-09T06:46:51;22.85;;;21.50;;
1995;SDS011;38556;47.068;15.408;2023-05-09T06:49:18;22.63;;;21.42;;
1995;SDS011;38556;47.068;15.408;2023-05-09T06:51:46;23.42;;;22.15;;
1995;SDS011;38556;47.068;15.408;2023-05-09T06:54:13;22.02;;;20.92;;
1995;SDS011;38556;47.068;15.408;2023-05-09T06:56:43;22.77;;;21.48;;
1995;SDS011;38556;47.068;15.408;2023-05-09T06:59:10;22.52;;;21.23;;
1995;SDS011;38556;47.068;15.408;2023-05-09T07:01:38;22.65;;;21.45;;
1995;SDS011;38556;47.068;15.408;2023-05-09T07:04:05;23.60;;;22.30;;
1995;SDS011;38556;47.068;15.408;2023-05-09T07:06:32;23.05;;;21.85;;
1995;SDS011;38556;47.068;15.408;2023-05-09T07:09:00;21.65;;;20.42;;
1995;SDS011;38556;47.068;15.408;2023-05-09T07:11:32;21.27;;;20.08;;
1995;SDS011;38556;47.068;15.408;2023-05-09T07:14:02;21.52;;;20.08;;
1995;SDS011;38556;47.068;15.408;2023-05-09T07:16:29;22.33;;;21.02;;
1995;SDS011;38556;47.068;15.408;2023-05-09T07:18:56;23.23;;;21.55;;
1995;SDS011;38556;47.068;15.408;2023-05-09T07:21:23;24.15;;;22.48;;
1995;SDS011;38556;47.068;15.408;2023-05-09T07:23:51;24.23;;;22.83;;
1995;SDS011;38556;47.068;15.408;2023-05-09T07:26:18;27.52;;;25.83;;
1995;SDS011;38556;47.068;15.408;2023-05-09T07:28:46;23.33;;;22.05;;
1995;SDS011;38556;47.068;15.408;2023-05-09T07:31:14;22.42;;;21.13;;
1995;SDS011;38556;47.068;15.408;2023-05-09T07:33:42;23.45;;;22.05;;
1995;SDS011;38556;47.068;15.408;2023-05-09T07:36:09;22.70;;;21.50;;
1995;SDS011;38556;47.068;15.408;2023-05-09T07:38:37;21.77;;;20.50;;
1995;SDS011;38556;47.068;15.408;2023-05-09T07:41:05;22.65;;;21.35;;
1995;SDS011;38556;47.068;15.408;2023-05-09T07:43:32;23.40;;;21.92;;
1995;SDS011;38556;47.068;15.408;2023-05-09T07:45:59;22.33;;;21.02;;
1995;SDS011;38556;47.068;15.408;2023-05-09T07:48:29;23.00;;;21.55;;
1995;SDS011;38556;47.068;15.408;2023-05-09T07:50:56;23.38;;;21.83;;
1995;SDS011;38556;47.068;15.408;2023-05-09T07:53:23;22.63;;;21.30;;
1995;SDS011;38556;47.068;15.408;2023-05-09T07:55:51;23.35;;;21.95;;
1995;SDS011;38556;47.068;15.408;2023-05-09T07:58:18;24.33;;;22.92;;
1995;SDS011;38556;47.068;15.408;2023-05-09T08:00:45;23.85;;;22.45;;
1995;SDS011;38556;47.068;15.408;2023-05-09T08:03:13;24.33;;;22.83;;
1995;SDS011;38556;47.068;15.408;2023-05-09T08:05:41;23.88;;;22.42;;
1995;SDS011;38556;47.068;15.408;2023-05-09T08:08:09;24.83;;;23.40;;
1995;SDS011;38556;47.068;15.408;2023-05-09T08:10:36;23.90;;;22.58;;
1995;SDS011;38556;47.068;15.408;2023-05-09T08:13:03;24.70;;;22.92;;
1995;SDS011;38556;47.068;15.408;2023-05-09T08:15:30;24.75;;;23.25;;
1995;SDS011;38556;47.068;15.408;2023-05-09T08:17:58;24.25;;;22.83;;
1995;SDS011;38556;47.068;15.408;2023-05-09T08:20:25;24.52;;;23.13;;
1995;SDS011;38556;47.068;15.408;2023-05-09T08:22:54;24.08;;;22.80;;
1995;SDS011;38556;47.068;15.408;2023-05-09T08:25:21;24.20;;;22.70;;
1995;SDS011;38556;47.068;15.408;2023-05-09T08:27:48;23.88;;;22.58;;
1995;SDS011;38556;47.068;15.408;2023-05-09T08:30:15;25.25;;;23.75;;
1995;SDS011;38556;47.068;15.408;2023-05-09T08:32:43;25.00;;;23.40;;
1995;SDS011;38556;47.068;15.408;2023-05-09T08:35:10;24.55;;;23.05;;
1995;SDS011;38556;47.068;15.408;2023-05-09T08:37:38;24.83;;;23.52;;
1995;SDS011;38556;47.068;15.408;2023-05-09T08:40:07;25.77;;;24.05;;
1995;SDS011;38556;47.068;15.408;2023-05-09T08:42:35;26.30;;;24.10;;
1995;SDS011;38556;47.068;15.408;2023-05-09T08:45:08;26.15;;;24.55;;
1995;SDS011;38556;47.068;15.408;2023-05-09T08:47:37;24.92;;;23.52;;
1995;SDS011;38556;47.068;15.408;2023-05-09T08:50:04;26.65;;;25.05;;
1995;SDS011;38556;47.068;15.408;2023-05-09T08:52:33;26.63;;;25.00;;
1995;SDS011;38556;47.068;15.408;2023-05-09T08:55:01;25.83;;;23.92;;
1995;SDS011;38556;47.068;15.408;2023-05-09T08:57:31;24.52;;;23.02;;
1995;SDS011;38556;47.068;15.408;2023-05-09T08:59:59;24.70;;;23.10;;
1995;SDS011;38556;47.068;15.408;2023-05-09T09:02:28;25.55;;;23.80;;
1995;SDS011;38556;47.068;15.408;2023-05-09T09:04:56;25.63;;;24.08;;
1995;SDS011;38556;47.068;15.408;2023-05-09T09:07:23;25.70;;;24.05;;
1995;SDS011;38556;47.068;15.408;2023-05-09T09:09:52;26.45;;;24.73;;
1995;SDS011;38556;47.068;15.408;2023-05-09T09:12:20;27.60;;;25.75;;
1995;SDS011;38556;47.068;15.408;2023-05-09T09:14:51;24.52;;;23.13;;
1995;SDS011;38556;47.068;15.408;2023-05-09T09:17:22;26.17;;;24.67;;
1995;SDS011;38556;47.068;15.408;2023-05-09T09:19:54;26.17;;;24.48;;
1995;SDS011;38556;47.068;15.408;2023-05-09T09:22:23;25.23;;;23.73;;
1995;SDS011;38556;47.068;15.408;2023-05-09T09:24:57;25.77;;;23.83;;
1995;SDS011;38556;47.068;15.408;2023-05-09T09:27:25;25.67;;;24.13;;
1995;SDS011;38556;47.068;15.408;2023-05-09T09:29:54;26.77;;;24.88;;
1995;SDS011;38556;47.068;15.408;2023-05-09T09:32:32;24.90;;;23.30;;
1995;SDS011;38556;47.068;15.408;2023-05-09T09:35:03;26.45;;;24.80;;
1995;SDS011;38556;47.068;15.408;2023-05-09T09:37:32;24.92;;;23.52;;
1995;SDS011;38556;47.068;15.408;2023-05-09T09:40:00;24.88;;;23.27;;
1995;SDS011;38556;47.068;15.408;2023-05-09T09:42:32;26.65;;;25.00;;
1995;SDS011;38556;47.068;15.408;2023-05-09T09:45:09;26.55;;;24.45;;
1995;SDS011;38556;47.068;15.408;2023-05-09T09:47:38;26.30;;;24.42;;
1995;SDS011;38556;47.068;15.408;2023-05-09T09:50:10;24.90;;;23.35;;
1995;SDS011;38556;47.068;15.408;2023-05-09T09:52:41;26.20;;;24.50;;
1995;SDS011;38556;47.068;15.408;2023-05-09T09:55:10;25.65;;;23.85;;
1995;SDS011;38556;47.068;15.408;2023-05-09T09:57:38;25.95;;;24.25;;
1995;SDS011;38556;47.068;15.408;2023-05-09T10:00:10;27.58;;;25.80;;
1995;SDS011;38556;47.068;15.408;2023-05-09T10:02:48;24.80;;;23.30;;
1995;SDS011;38556;47.068;15.408;2023-05-09T10:05:17;24.27;;;22.98;;
1995;SDS011;38556;47.068;15.408;2023-05-09T10:07:48;25.67;;;24.10;;
1995;SDS011;38556;47.068;15.408;2023-05-09T10:10:18;26.10;;;24.50;;
1995;SDS011;38556;47.068;15.408;2023-05-09T10:12:46;24.95;;;23.35;;
1995;SDS011;38556;47.068;15.408;2023-05-09T10:15:16;25.55;;;23.85;;
1995;SDS011;38556;47.068;15.408;2023-05-09T10:17:46;25.45;;;24.02;;
1995;SDS011;38556;47.068;15.408;2023-05-09T10:20:14;27.02;;;25.10;;
1995;SDS011;38556;47.068;15.408;2023-05-09T10:22:43;26.55;;;24.95;;
1995;SDS011;38556;47.068;15.408;2023-05-09T10:25:16;25.40;;;23.95;;
1995;SDS011;38556;47.068;15.408;2023-05-09T10:27:46;25.85;;;24.25;;
1995;SDS011;38556;47.068;15.408;2023-05-09T10:30:17;26.52;;;24.73;;
1995;SDS011;38556;47.068;15.408;2023-05-09T10:32:48;26.67;;;25.05;;
1995;SDS011;38556;47.068;15.408;2023-05-09T10:35:19;25.42;;;23.92;;
1995;SDS011;38556;47.068;15.408;2023-05-09T10:37:48;26.02;;;24.23;;
1995;SDS011;38556;47.068;15.408;2023-05-09T10:40:16;26.67;;;25.13;;
1995;SDS011;38556;47.068;15.408;2023-05-09T10:42:44;26.15;;;24.65;;
1995;SDS011;38556;47.068;15.408;2023-05-09T10:45:13;26.05;;;24.45;;
1995;SDS011;38556;47.068;15.408;2023-05-09T10:47:42;26.02;;;24.35;;
1995;SDS011;38556;47.068;15.408;2023-05-09T10:50:11;26.65;;;24.95;;
1995;SDS011;38556;47.068;15.408;2023-05-09T10:55:36;25.40;;;23.73;;
1995;SDS011;38556;47.068;15.408;2023-05-09T10:58:20;26.27;;;24.55;;
1995;SDS011;38556;47.068;15.408;2023-05-09T11:00:50;26.30;;;24.77;;
1995;SDS011;38556;47.068;15.408;2023-05-09T11:03:19;25.23;;;23.77;;
1995;SDS011;38556;47.068;15.408;2023-05-09T11:05:49;26.00;;;24.50;;
1995;SDS011;38556;47.068;15.408;2023-05-09T11:08:17;25.47;;;23.80;;
1995;SDS011;38556;47.068;15.408;2023-05-09T11:10:45;26.73;;;24.92;;
1995;SDS011;38556;47.068;15.408;2023-05-09T11:13:13;27.00;;;25.30;;
1995;SDS011;38556;47.068;15.408;2023-05-09T11:16:04;27.93;;;26.13;;
1995;SDS011;38556;47.068;15.408;2023-05-09T11:18:35;26.58;;;24.80;;
1995;SDS011;38556;47.068;15.408;2023-05-09T11:21:17;27.03;;;25.23;;
1995;SDS011;38556;47.068;15.408;2023-05-09T11:23:46;27.20;;;25.53;;
1995;SDS011;38556;47.068;15.408;2023-05-09T11:26:15;29.43;;;27.17;;
1995;SDS011;38556;47.068;15.408;2023-05-09T11:28:50;28.17;;;26.27;;
1995;SDS011;38556;47.068;15.408;2023-05-09T11:31:19;26.87;;;25.17;;
1995;SDS011;38556;47.068;15.408;2023-05-09T11:33:49;27.75;;;25.70;;
1995;SDS011;38556;47.068;15.408;2023-05-09T11:36:29;28.17;;;26.27;;
1995;SDS011;38556;47.068;15.408;2023-05-09T11:39:01;26.57;;;24.80;;
1995;SDS011;38556;47.068;15.408;2023-05-09T11:41:35;26.37;;;24.70;;
1995;SDS011;38556;47.068;15.408;2023-05-09T11:44:11;28.00;;;26.20;;
1995;SDS011;38556;47.068;15.408;2023-05-09T11:46:40;27.47;;;25.87;;
1995;SDS011;38556;47.068;15.408;2023-05-09T11:49:09;26.67;;;24.90;;
1995;SDS011;38556;47.068;15.408;2023-05-09T11:51:37;27.10;;;25.37;;
1995;SDS011;38556;47.068;15.408;2023-05-09T11:54:04;27.40;;;25.70;;
1995;SDS011;38556;47.068;15.408;2023-05-09T11:56:33;27.77;;;25.87;;
1995;SDS011;38556;47.068;15.408;2023-05-09T11:59:00;32.23;;;30.10;;
1995;SDS011;38556;47.068;15.408;2023-05-09T12:01:28;27.53;;;24.73;;
1995;SDS011;38556;47.068;15.408;2023-05-09T12:03:56;27.40;;;25.80;;
1995;SDS011;38556;47.068;15.408;2023-05-09T12:06:25;28.10;;;26.13;;
1995;SDS011;38556;47.068;15.408;2023-05-09T12:08:54;27.23;;;25.50;;
1995;SDS011;38556;47.068;15.408;2023-05-09T12:11:22;27.70;;;26.00;;
1995;SDS011;38556;47.068;15.408;2023-05-09T12:13:51;26.57;;;24.97;;
1995;SDS011;38556;47.068;15.408;2023-05-09T12:16:18;27.50;;;25.20;;
1995;SDS011;38556;47.068;15.408;2023-05-09T12:18:47;25.97;;;24.37;;
1995;SDS011;38556;47.068;15.408;2023-05-09T12:21:15;28.53;;;26.10;;
1995;SDS011;38556;47.068;15.408;2023-05-09T12:23:45;27.50;;;25.83;;
1995;SDS011;38556;47.068;15.408;2023-05-09T12:26:12;26.70;;;24.70;;
1995;SDS011;38556;47.068;15.408;2023-05-09T12:28:40;27.87;;;25.93;;
1995;SDS011;38556;47.068;15.408;2023-05-09T12:31:07;28.07;;;26.17;;
1995;SDS011;38556;47.068;15.408;2023-05-09T12:33:35;27.87;;;26.10;;
1995;SDS011;38556;47.068;15.408;2023-05-09T12:36:05;25.83;;;24.33;;
1995;SDS011;38556;47.068;15.408;2023-05-09T12:38:34;27.83;;;26.03;;
1995;SDS011;38556;47.068;15.408;2023-05-09T12:41:03;26.03;;;24.50;;
1995;SDS011;38556;47.068;15.408;2023-05-09T12:43:31;26.10;;;24.53;;
1995;SDS011;38556;47.068;15.408;2023-05-09T12:46:00;25.90;;;24.20;;
1995;SDS011;38556;47.068;15.408;2023-05-09T12:48:29;26.70;;;24.90;;
1995;SDS011;38556;47.068;15.408;2023-05-09T12:51:04;27.30;;;25.50;;
1995;SDS011;38556;47.068;15.408;2023-05-09T12:53:35;28.20;;;26.50;;
1995;SDS011;38556;47.068;15.408;2023-05-09T12:56:10;26.20;;;24.70;;
1995;SDS011;38556;47.068;15.408;2023-05-09T12:58:38;27.73;;;26.03;;
1995;SDS011;38556;47.068;15.408;2023-05-09T13:01:05;27.87;;;26.07;;
1995;SDS011;38556;47.068;15.408;2023-05-09T13:03:33;26.40;;;24.80;;
1995;SDS011;38556;47.068;15.408;2023-05-09T13:06:03;26.90;;;25.33;;
1995;SDS011;38556;47.068;15.408;2023-05-09T13:08:35;26.70;;;25.00;;
1995;SDS011;38556;47.068;15.408;2023-05-09T13:11:03;26.93;;;25.33;;
1995;SDS011;38556;47.068;15.408;2023-05-09T13:13:32;28.60;;;26.13;;
1995;SDS011;38556;47.068;15.408;2023-05-09T13:15:59;26.63;;;24.83;;
1995;SDS011;38556;47.068;15.408;2023-05-09T13:18:26;26.77;;;25.17;;
1995;SDS011;38556;47.068;15.408;2023-05-09T13:20:54;26.23;;;24.23;;
1995;SDS011;38556;47.068;15.408;2023-05-09T13:23:21;26.20;;;24.60;;
1995;SDS011;38556;47.068;15.408;2023-05-09T13:25:48;25.47;;;24.03;;
1995;SDS011;38556;47.068;15.408;2023-05-09T13:28:15;25.87;;;24.27;;
1995;SDS011;38556;47.068;15.408;2023-05-09T13:30:44;26.43;;;24.83;;
1995;SDS011;38556;47.068;15.408;2023-05-09T13:33:11;25.90;;;24.30;;
1995;SDS011;38556;47.068;15.408;2023-05-09T13:35:39;26.00;;;24.30;;
1995;SDS011;38556;47.068;15.408;2023-05-09T13:38:06;24.03;;;22.63;;
1995;SDS011;38556;47.068;15.408;2023-05-09T13:40:33;24.20;;;22.70;;
1995;SDS011;38556;47.068;15.408;2023-05-09T13:43:02;24.10;;;22.50;;
1995;SDS011;38556;47.068;15.408;2023-05-09T13:45:29;23.30;;;21.80;;
1995;SDS011;38556;47.068;15.408;2023-05-09T13:47:58;24.20;;;22.80;;
1995;SDS011;38556;47.068;15.408;2023-05-09T13:50:25;23.83;;;22.20;;
1995;SDS011;38556;47.068;15.408;2023-05-09T13:52:52;23.70;;;22.30;;
1995;SDS011;38556;47.068;15.408;2023-05-09T13:55:20;24.90;;;23.40;;
1995;SDS011;38556;47.068;15.408;2023-05-09T13:57:47;24.30;;;22.80;;
1995;SDS011;38556;47.068;15.408;2023-05-09T14:00:14;24.40;;;22.80;;
1995;SDS011;38556;47.068;15.408;2023-05-09T14:02:42;24.40;;;23.00;;
1995;SDS011;38556;47.068;15.408;2023-05-09T14:05:11;24.07;;;22.43;;
1995;SDS011;38556;47.068;15.408;2023-05-09T14:07:38;24.90;;;23.50;;
1995;SDS011;38556;47.068;15.408;2023-05-09T14:10:05;25.73;;;24.03;;
1995;SDS011;38556;47.068;15.408;2023-05-09T14:12:33;26.27;;;24.67;;
1995;SDS011;38556;47.068;15.408;2023-05-09T14:15:01;24.20;;;22.70;;
1995;SDS011;38556;47.068;15.408;2023-05-09T14:17:28;23.63;;;22.23;;
1995;SDS011;38556;47.068;15.408;2023-05-09T14:19:56;24.33;;;22.93;;
1995;SDS011;38556;47.068;15.408;2023-05-09T14:22:24;24.17;;;22.67;;
1995;SDS011;38556;47.068;15.408;2023-05-09T14:24:53;23.53;;;22.10;;
1995;SDS011;38556;47.068;15.408;2023-05-09T14:27:20;24.60;;;23.10;;
1995;SDS011;38556;47.068;15.408;2023-05-09T14:29:48;24.03;;;22.67;;
1995;SDS011;38556;47.068;15.408;2023-05-09T14:32:15;23.10;;;21.80;;